Map

Track Data

SID SEASON NUMBER BASIN SUBBASIN NAME ISO_TIME NATURE LAT LON WMO_WIND WMO_PRES WMO_AGENCY TRACK_TYPE DIST2LAND LANDFALL IFLAG USA_AGENCY USA_ATCF_ID USA_LAT USA_LON USA_RECORD USA_STATUS USA_WIND USA_PRES USA_SSHS USA_R34_NE USA_R34_SE USA_R34_SW USA_R34_NW USA_R50_NE USA_R50_SE USA_R50_SW USA_R50_NW USA_R64_NE USA_R64_SE USA_R64_SW USA_R64_NW USA_POCI USA_ROCI USA_RMW USA_EYE TOKYO_LAT TOKYO_LON TOKYO_GRADE TOKYO_WIND TOKYO_PRES TOKYO_R50_DIR TOKYO_R50_LONG TOKYO_R50_SHORT TOKYO_R30_DIR TOKYO_R30_LONG TOKYO_R30_SHORT TOKYO_LAND CMA_LAT CMA_LON CMA_CAT CMA_WIND CMA_PRES HKO_LAT HKO_LON HKO_CAT HKO_WIND HKO_PRES NEWDELHI_LAT NEWDELHI_LON NEWDELHI_GRADE NEWDELHI_WIND NEWDELHI_PRES NEWDELHI_CI NEWDELHI_DP NEWDELHI_POCI REUNION_LAT REUNION_LON REUNION_TYPE REUNION_WIND REUNION_PRES REUNION_TNUM REUNION_CI REUNION_RMW REUNION_R34_NE REUNION_R34_SE REUNION_R34_SW REUNION_R34_NW REUNION_R50_NE REUNION_R50_SE REUNION_R50_SW REUNION_R50_NW REUNION_R64_NE REUNION_R64_SE REUNION_R64_SW REUNION_R64_NW BOM_LAT BOM_LON BOM_TYPE BOM_WIND BOM_PRES BOM_TNUM BOM_CI BOM_RMW BOM_R34_NE BOM_R34_SE BOM_R34_SW BOM_R34_NW BOM_R50_NE BOM_R50_SE BOM_R50_SW BOM_R50_NW BOM_R64_NE BOM_R64_SE BOM_R64_SW BOM_R64_NW BOM_ROCI BOM_POCI BOM_EYE BOM_POS_METHOD BOM_PRES_METHOD NADI_LAT NADI_LON NADI_CAT NADI_WIND NADI_PRES WELLINGTON_LAT WELLINGTON_LON WELLINGTON_WIND WELLINGTON_PRES DS824_LAT DS824_LON DS824_STAGE DS824_WIND DS824_PRES TD9636_LAT TD9636_LON TD9636_STAGE TD9636_WIND TD9636_PRES TD9635_LAT TD9635_LON TD9635_WIND TD9635_PRES TD9635_ROCI NEUMANN_LAT NEUMANN_LON NEUMANN_CLASS NEUMANN_WIND NEUMANN_PRES MLC_LAT MLC_LON MLC_CLASS MLC_WIND MLC_PRES USA_GUST BOM_GUST BOM_GUST_PER REUNION_GUST REUNION_GUST_PER USA_SEAHGT USA_SEARAD_NE USA_SEARAD_SE USA_SEARAD_SW USA_SEARAD_NW STORM_SPEED STORM_DIR
1933272N14134 1933 61 WP MM NOT_NAMED 1933-09-29 10:00:00 NR 14.2000 133.600 main 905 866 __________O___ -1 14.2000 133.600 7 12 291
1933272N14134 1933 61 WP MM NOT_NAMED 1933-09-29 12:00:00 NR 14.3407 133.227 main 866 820 __________P___ -1 14.3407 133.227 7 12 291
1933272N14134 1933 61 WP MM NOT_NAMED 1933-09-29 15:00:00 NR 14.5548 132.651 main 824 760 __________P___ -1 14.5548 132.651 7 12 291
1933272N14134 1933 61 WP MM NOT_NAMED 1933-09-29 18:00:00 NR 14.7780 132.032 main 760 701 __________P___ -1 14.7780 132.032 7 13 290
1933272N14134 1933 61 WP MM NOT_NAMED 1933-09-29 21:00:00 NR 15.0163 131.347 main 701 686 __________P___ -1 15.0163 131.347 7 14 290
1933272N14134 1933 61 WP MM NOT_NAMED 1933-09-29 22:00:00 NR 15.1000 131.100 main 686 651 __________O___ -1 15.1000 131.100 3 16 289
1933272N14134 1933 61 WP MM NOT_NAMED 1933-09-30 00:00:00 NR 15.2744 130.573 main 651 585 __________P___ -1 15.2744 130.573 3 17 289
1933272N14134 1933 61 WP MM NOT_NAMED 1933-09-30 03:00:00 NR 15.5487 129.714 main 585 518 __________P___ -1 15.5487 129.714 3 18 288
1933272N14134 1933 61 WP MM NOT_NAMED 1933-09-30 06:00:00 NR 15.8298 128.791 main 518 440 __________P___ -1 15.8298 128.791 3 19 287
1933272N14134 1933 61 WP MM NOT_NAMED 1933-09-30 09:00:00 NR 16.1089 127.827 main 440 429 __________P___ -1 16.1089 127.827 3 19 287
1933272N14134 1933 61 WP MM NOT_NAMED 1933-09-30 10:00:00 NR 16.2000 127.500 main 420 387 __________O___ -1 16.2000 127.500 4 20 286
1933272N14134 1933 61 WP MM NOT_NAMED 1933-09-30 12:00:00 NR 16.3850 126.854 main 387 337 __________P___ -1 16.3850 126.854 4 20 286
1933272N14134 1933 61 WP MM NOT_NAMED 1933-09-30 15:00:00 NR 16.6569 125.859 main 347 244 __________P___ -1 16.6569 125.859 4 20 285
1933272N14134 1933 61 WP MM NOT_NAMED 1933-09-30 18:00:00 NR 16.9108 124.847 main 244 138 __________P___ -1 16.9108 124.847 4 20 284
1933272N14134 1933 61 WP MM NOT_NAMED 1933-09-30 21:00:00 NR 17.1343 123.835 main 138 119 __________P___ -1 17.1343 123.835 4 20 283
1933272N14134 1933 61 WP MM NOT_NAMED 1933-09-30 22:00:00 NR 17.2000 123.500 main 108 42 __________O___ -1 17.2000 123.500 4 19 280
1933272N14134 1933 61 WP MM NOT_NAMED 1933-10-01 00:00:00 NR 17.3080 122.846 main 42 0 __________P___ -1 17.3080 122.846 4 19 279
1933272N14134 1933 61 WP MM NOT_NAMED 1933-10-01 03:00:00 NR 17.4393 121.872 main 0 0 __________P___ -1 17.4393 121.872 4 19 277
1933272N14134 1933 61 WP MM NOT_NAMED 1933-10-01 06:00:00 NR 17.5505 120.901 main 0 0 __________P___ -1 17.5505 120.901 4 19 277
1933272N14134 1933 61 WP MM NOT_NAMED 1933-10-01 09:00:00 NR 17.6604 119.927 main 43 43 __________P___ -1 17.6604 119.927 4 19 277
1933272N14134 1933 61 WP MM NOT_NAMED 1933-10-01 10:00:00 NR 17.7000 119.600 main 75 75 __________O___ -1 17.7000 119.600 4 19 278
1933272N14134 1933 61 WP MM NOT_NAMED 1933-10-01 12:00:00 NR 17.7913 118.921 main 150 150 __________P___ -1 17.7913 118.921 4 20 278
1933272N14134 1933 61 WP MM NOT_NAMED 1933-10-01 15:00:00 NR 17.9351 117.895 main 256 266 __________P___ -1 17.9351 117.895 4 20 279
1933272N14134 1933 61 WP MM NOT_NAMED 1933-10-01 18:00:00 NR 18.0864 116.883 main 364 374 __________P___ -1 18.0864 116.883 4 19 279
1933272N14134 1933 61 WP MM NOT_NAMED 1933-10-01 21:00:00 NR 18.2453 115.911 main 465 470 __________P___ -1 18.2453 115.911 4 19 280
1933272N14134 1933 61 WP MM NOT_NAMED 1933-10-01 22:00:00 NR 18.3000 115.600 main 467 441 __________O___ -1 18.3000 115.600 4 17 281
1933272N14134 1933 61 WP MM NOT_NAMED 1933-10-02 00:00:00 NR 18.4119 115.010 main 441 354 __________P___ -1 18.4119 115.010 4 17 282
1933272N14134 1933 61 WP MM NOT_NAMED 1933-10-02 03:00:00 NR 18.5874 114.169 main 354 267 __________P___ -1 18.5874 114.169 4 16 283
1933272N14134 1933 61 WP MM NOT_NAMED 1933-10-02 06:00:00 NR 18.7667 113.362 main 267 185 __________P___ -1 18.7667 113.362 4 16 283
1933272N14134 1933 61 WP MM NOT_NAMED 1933-10-02 09:00:00 NR 18.9430 112.566 main 185 152 __________P___ -1 18.9430 112.566 4 15 283
1933272N14134 1933 61 WP MM NOT_NAMED 1933-10-02 10:00:00 NR 19.0000 112.300 main 152 92 __________O___ -1 19.0000 112.300 4 17 282
1933272N14134 1933 61 WP MM NOT_NAMED 1933-10-02 12:00:00 NR 19.1141 111.703 main 92 15 __________P___ -1 19.1141 111.703 4 17 281
1933272N14134 1933 61 WP MM NOT_NAMED 1933-10-02 15:00:00 NR 19.2791 110.807 main 15 0 __________P___ -1 19.2791 110.807 4 17 281
1933272N14134 1933 61 WP MM NOT_NAMED 1933-10-02 18:00:00 NR 19.4305 109.958 main 0 0 __________P___ -1 19.4305 109.958 4 15 281
1933272N14134 1933 61 WP MM NOT_NAMED 1933-10-02 21:00:00 NR 19.5617 109.215 main 0 0 __________P___ -1 19.5617 109.215 4 14 281
1933272N14134 1933 61 WP MM NOT_NAMED 1933-10-02 22:00:00 NR 19.6000 109.000 main 10 10 __________O___ -1 19.6000 109.000 4 11 280
1933272N14134 1933 61 WP MM NOT_NAMED 1933-10-03 00:00:00 NR 19.6601 108.649 main 35 35 __________P___ -1 19.6601 108.649 4 9 280
1933272N14134 1933 61 WP MM NOT_NAMED 1933-10-03 03:00:00 NR 19.7328 108.237 main 61 61 __________P___ -1 19.7328 108.237 4 7 281
1933272N14134 1933 61 WP MM NOT_NAMED 1933-10-03 06:00:00 NR 19.7982 107.909 main 92 92 __________P___ -1 19.7982 107.909 4 6 283
1933272N14134 1933 61 WP MM NOT_NAMED 1933-10-03 09:00:00 NR 19.8714 107.606 main 113 104 __________P___ -1 19.8714 107.606 4 6 285
1933272N14134 1933 61 WP MM NOT_NAMED 1933-10-03 10:00:00 NR 19.9000 107.500 main 104 80 __________O___ -1 19.9000 107.500 4 7 287
1933272N14134 1933 61 WP MM NOT_NAMED 1933-10-03 12:00:00 NR 19.9657 107.271 main 80 38 __________P___ -1 19.9657 107.271 4 7 288
1933272N14134 1933 61 WP MM NOT_NAMED 1933-10-03 15:00:00 NR 20.0820 106.891 main 38 0 __________P___ -1 20.0820 106.891 4 8 288
1933272N14134 1933 61 WP MM NOT_NAMED 1933-10-03 18:00:00 NR 20.2134 106.478 main 0 0 __________P___ -1 20.2134 106.478 4 8 289
1933272N14134 1933 61 WP MM NOT_NAMED 1933-10-03 21:00:00 NR 20.3529 106.046 main 0 0 __________P___ -1 20.3529 106.046 4 9 289
1933272N14134 1933 61 WP MM NOT_NAMED 1933-10-03 22:00:00 NR 20.4000 105.900 main 0 __________O___ -1 20.4000 105.900 7 9 289

Digital Typhoon Data and Search

About IBTrACS Database

This database is a web-friendly format of International Best Track Archive for Climate Stewardship (IBTrACS), a global best track data archive curated by NOAA dating back to 1842.

Updated: 2021-12-01